createdAt,value
2022-11-01T00:04:50.598Z,15.00
2022-11-01T00:09:52.296Z,15.10
2022-11-01T00:14:53.995Z,15.00
2022-11-01T00:19:55.810Z,14.90
2022-11-01T00:24:57.485Z,14.80
2022-11-01T00:29:59.165Z,14.70
2022-11-01T00:35:00.844Z,14.80
2022-11-01T00:40:02.517Z,15.00
2022-11-01T00:45:04.505Z,14.50
2022-11-01T00:50:06.894Z,14.60
2022-11-01T00:55:09.029Z,14.20
2022-11-01T01:00:12.213Z,14.10
2022-11-01T01:05:14.215Z,14.50
2022-11-01T01:10:15.995Z,14.40
2022-11-01T01:15:17.819Z,14.50
2022-11-01T01:20:20.510Z,14.30
2022-11-01T01:25:22.595Z,14.30
2022-11-01T01:30:24.555Z,14.90
2022-11-01T01:35:26.254Z,14.30
2022-11-01T01:40:27.912Z,14.20
2022-11-01T01:45:36.735Z,14.30
2022-11-01T01:50:54.440Z,13.80
2022-11-01T01:56:12.298Z,13.70
2022-11-01T02:01:14.495Z,13.90
2022-11-01T02:11:24.044Z,13.60
2022-11-01T02:16:35.832Z,13.60
2022-11-01T02:21:47.690Z,13.60
2022-11-01T02:27:08.709Z,13.50
2022-11-01T02:32:24.226Z,13.90
2022-11-01T02:37:32.630Z,14.00
2022-11-01T02:42:42.740Z,13.80
2022-11-01T02:47:44.433Z,13.70
2022-11-01T02:52:47.162Z,13.70
2022-11-01T02:57:49.751Z,13.60
2022-11-01T03:02:57.704Z,13.60
2022-11-01T03:08:04.870Z,14.20
2022-11-01T03:13:32.477Z,14.10
2022-11-01T03:18:39.266Z,13.90
2022-11-01T03:23:55.887Z,13.70
2022-11-01T03:29:03.083Z,13.30
2022-11-01T03:34:12.172Z,13.50
2022-11-01T03:39:23.559Z,13.70
2022-11-01T03:44:26.793Z,13.60
2022-11-01T03:49:28.464Z,13.50
2022-11-01T03:54:30.153Z,13.80
2022-11-01T03:59:31.810Z,14.00
2022-11-01T04:04:33.496Z,13.80
2022-11-01T04:09:35.348Z,13.90
2022-11-01T04:14:37.009Z,13.60
2022-11-01T04:19:38.710Z,13.60
2022-11-01T04:24:40.347Z,13.50
2022-11-01T04:29:42.024Z,13.60
2022-11-01T04:34:43.679Z,13.50
2022-11-01T04:39:45.334Z,13.70
2022-11-01T04:44:47.061Z,13.50
2022-11-01T04:49:48.724Z,13.90
2022-11-01T04:54:50.453Z,13.70
2022-11-01T04:59:53.083Z,13.50
2022-11-01T05:04:54.760Z,13.40
2022-11-01T05:09:56.621Z,12.80
2022-11-01T05:14:58.310Z,12.80
2022-11-01T05:19:59.969Z,12.70
2022-11-01T05:25:01.710Z,12.90
2022-11-01T05:30:04.115Z,13.20
2022-11-01T05:35:06.049Z,13.30
2022-11-01T05:40:08.460Z,13.50
2022-11-01T05:45:10.577Z,13.80
2022-11-01T05:50:14.682Z,13.40
2022-11-01T05:55:16.413Z,13.50
2022-11-01T06:00:18.201Z,13.90
2022-11-01T06:05:19.886Z,13.60
2022-11-01T06:10:21.611Z,13.60
2022-11-01T06:15:23.632Z,13.50
2022-11-01T06:20:26.522Z,13.60
2022-11-01T06:25:28.539Z,13.50
2022-11-01T06:30:30.216Z,13.70
2022-11-01T06:35:32.537Z,14.00
2022-11-01T06:40:35.608Z,13.80
2022-11-01T06:45:37.301Z,13.90
2022-11-01T06:50:39.046Z,13.90
2022-11-01T06:55:40.738Z,14.10
2022-11-01T07:00:42.605Z,14.60
2022-11-01T07:05:44.434Z,14.70
2022-11-01T07:10:46.219Z,14.30
2022-11-01T07:15:47.879Z,14.20
2022-11-01T07:20:49.571Z,14.00
2022-11-01T07:25:54.289Z,14.20
2022-11-01T07:30:57.050Z,14.80
2022-11-01T07:36:00.171Z,14.80
2022-11-01T07:41:03.838Z,14.90
2022-11-01T07:46:05.620Z,15.10
2022-11-01T07:51:07.360Z,15.20
2022-11-01T07:56:09.226Z,15.40
2022-11-01T08:01:10.998Z,15.50
2022-11-01T08:06:12.800Z,15.50
2022-11-01T08:11:14.507Z,15.60
2022-11-01T08:16:16.210Z,15.60
2022-11-01T08:21:17.884Z,15.50
2022-11-01T08:26:19.580Z,15.90
2022-11-01T08:31:21.230Z,15.90
2022-11-01T08:36:22.910Z,16.00
2022-11-01T08:41:24.601Z,15.90
2022-11-01T08:46:26.294Z,16.00
2022-11-01T08:51:28.081Z,16.10
2022-11-01T08:56:29.759Z,16.00
2022-11-01T09:01:31.549Z,16.10
2022-11-01T09:06:36.212Z,16.10
2022-11-01T09:11:38.406Z,16.30
2022-11-01T09:16:40.273Z,16.40
2022-11-01T09:21:44.098Z,16.50
2022-11-01T09:26:45.846Z,16.60
2022-11-01T09:31:51.263Z,16.70
2022-11-01T09:36:52.909Z,16.90
2022-11-01T09:41:58.158Z,17.10
2022-11-01T09:47:03.827Z,17.10
2022-11-01T09:52:06.915Z,17.00
2022-11-01T09:57:21.231Z,16.80
2022-11-01T10:02:29.026Z,16.90
2022-11-01T10:08:13.022Z,16.90
2022-11-01T10:13:32.773Z,17.00
2022-11-01T10:19:29.774Z,17.20
2022-11-01T10:24:46.434Z,17.50
2022-11-01T10:30:01.583Z,17.50
2022-11-01T10:35:16.047Z,17.60
2022-11-01T10:40:25.723Z,17.70
2022-11-01T10:45:27.629Z,17.50
2022-11-01T10:50:30.503Z,17.50
2022-11-01T10:55:44.249Z,17.50
2022-11-01T11:00:46.681Z,17.60
2022-11-01T11:05:50.514Z,17.70
2022-11-01T11:10:52.965Z,17.70
2022-11-01T11:15:58.302Z,17.90
2022-11-01T11:21:04.999Z,17.90
2022-11-01T11:26:10.386Z,18.10
2022-11-01T11:31:22.850Z,18.00
2022-11-01T11:36:34.698Z,18.20
2022-11-01T11:41:36.618Z,18.40
2022-11-01T11:46:55.737Z,18.50
2022-11-01T11:51:57.550Z,18.50
2022-11-01T11:57:20.732Z,18.40
2022-11-01T12:02:29.634Z,18.20
2022-11-01T12:07:47.086Z,18.20
2022-11-01T12:12:52.345Z,18.40
2022-11-01T12:17:54.682Z,18.50
2022-11-01T12:23:06.061Z,18.70
2022-11-01T12:28:22.140Z,18.80
2022-11-01T12:33:52.266Z,18.80
2022-11-01T12:39:01.796Z,18.80
2022-11-01T12:44:08.004Z,18.80
2022-11-01T12:49:19.316Z,18.70
2022-11-01T12:54:30.354Z,18.70
2022-11-01T12:59:37.943Z,18.60
2022-11-01T13:04:51.470Z,18.60
2022-11-01T13:09:55.893Z,18.50
2022-11-01T13:15:49.606Z,18.40
2022-11-01T13:21:14.121Z,18.50
2022-11-01T13:26:24.387Z,18.50
2022-11-01T13:32:11.819Z,18.50
2022-11-01T13:37:31.575Z,18.50
2022-11-01T13:43:03.258Z,18.40
2022-11-01T13:48:56.012Z,18.40
2022-11-01T13:54:18.454Z,18.40
2022-11-01T13:59:51.175Z,18.20
2022-11-01T14:04:57.824Z,18.10
2022-11-01T14:09:59.597Z,18.00
2022-11-01T14:15:14.441Z,17.80
2022-11-01T14:20:16.093Z,17.50
2022-11-01T14:25:17.808Z,17.20
2022-11-01T14:30:22.727Z,17.00
2022-11-01T14:35:31.430Z,16.80
2022-11-01T14:40:43.346Z,16.80
2022-11-01T14:46:02.837Z,16.70
2022-11-01T14:51:07.213Z,16.70
2022-11-01T14:56:29.094Z,16.70
2022-11-01T15:01:30.932Z,16.70
2022-11-01T15:06:32.671Z,16.70
2022-11-01T15:11:35.139Z,16.60
2022-11-01T15:16:37.038Z,16.70
2022-11-01T15:21:47.057Z,16.50
2022-11-01T15:26:50.124Z,16.50
2022-11-01T15:31:57.852Z,16.60
2022-11-01T15:37:10.924Z,16.50
2022-11-01T15:42:30.618Z,16.50
2022-11-01T15:47:32.297Z,16.40
2022-11-01T15:52:35.261Z,16.40
2022-11-01T15:57:51.448Z,16.40
2022-11-01T16:03:15.094Z,16.40
2022-11-01T16:08:42.572Z,16.30
2022-11-01T16:13:58.298Z,16.20
2022-11-01T16:19:00.005Z,16.20
2022-11-01T16:24:14.272Z,16.20
2022-11-01T16:29:16.001Z,16.10
2022-11-01T16:34:24.266Z,16.20
2022-11-01T16:39:30.689Z,16.30
2022-11-01T16:44:32.360Z,16.30
2022-11-01T16:49:34.031Z,16.40
2022-11-01T16:54:35.705Z,16.30
2022-11-01T16:59:40.438Z,16.30
2022-11-01T17:04:42.634Z,16.10
2022-11-01T17:09:44.346Z,16.20
2022-11-01T17:14:46.009Z,16.10
2022-11-01T17:19:58.506Z,16.20
2022-11-01T17:25:00.412Z,16.10
2022-11-01T17:30:02.072Z,16.10
2022-11-01T17:35:04.254Z,16.10
2022-11-01T17:40:24.942Z,15.70
2022-11-01T17:45:26.942Z,15.50
2022-11-01T17:50:28.594Z,15.50
2022-11-01T17:55:30.276Z,15.50
2022-11-01T18:00:32.063Z,15.50
2022-11-01T18:05:33.769Z,15.50
2022-11-01T18:11:04.163Z,15.50
2022-11-01T18:16:20.404Z,15.40
2022-11-01T18:21:31.219Z,15.40
2022-11-01T18:26:32.935Z,15.30
2022-11-01T18:31:43.377Z,15.30
2022-11-01T18:37:08.807Z,15.30
2022-11-01T18:42:11.237Z,15.20
2022-11-01T18:47:32.315Z,15.10
2022-11-01T18:52:34.327Z,15.00
2022-11-01T18:57:36.074Z,14.90
2022-11-01T19:02:39.033Z,14.90
2022-11-01T19:08:09.126Z,15.10
2022-11-01T19:13:02.432Z,15.00
2022-11-01T19:18:16.421Z,15.00
2022-11-01T19:23:24.185Z,14.90
2022-11-01T19:28:33.944Z,14.70
2022-11-01T19:33:38.619Z,14.70
2022-11-01T19:38:40.415Z,14.90
2022-11-01T19:43:42.192Z,14.90
2022-11-01T19:48:45.105Z,14.70
2022-11-01T19:53:47.238Z,14.60
2022-11-01T19:58:56.319Z,14.50
2022-11-01T20:04:27.037Z,14.60
2022-11-01T20:09:35.100Z,14.50
2022-11-01T20:14:37.020Z,14.40
2022-11-01T20:19:38.711Z,14.30
2022-11-01T20:24:40.374Z,14.50
2022-11-01T20:29:42.020Z,14.70
2022-11-01T20:34:43.687Z,14.60
2022-11-01T20:39:45.431Z,14.40
2022-11-01T20:44:47.125Z,14.30
2022-11-01T20:49:48.778Z,14.30
2022-11-01T20:54:50.465Z,14.20
2022-11-01T20:59:52.159Z,14.10
2022-11-01T21:05:05.410Z,14.20
2022-11-01T21:10:45.509Z,14.40
2022-11-01T21:15:47.202Z,14.30
2022-11-01T21:20:49.418Z,14.30
2022-11-01T21:25:53.428Z,14.20
2022-11-01T21:30:57.481Z,14.10
2022-11-01T21:35:59.139Z,13.90
2022-11-01T21:41:02.242Z,13.70
2022-11-01T21:46:03.889Z,13.70
2022-11-01T21:51:05.759Z,13.60
2022-11-01T21:56:07.665Z,13.40
2022-11-01T22:01:09.408Z,13.30
2022-11-01T22:06:11.197Z,13.30
2022-11-01T22:11:12.885Z,13.40
2022-11-01T22:16:14.638Z,13.30
2022-11-01T22:21:16.292Z,13.30
2022-11-01T22:26:18.027Z,13.30
2022-11-01T22:31:20.175Z,13.30
2022-11-01T22:36:23.461Z,13.60
2022-11-01T22:41:33.078Z,13.60
2022-11-01T22:46:38.529Z,13.50
2022-11-01T22:51:44.114Z,13.50
2022-11-01T22:56:49.270Z,13.60
2022-11-01T23:02:03.940Z,13.50
2022-11-01T23:07:21.732Z,13.60
2022-11-01T23:12:24.250Z,13.30
2022-11-01T23:17:30.931Z,13.10
2022-11-01T23:22:35.364Z,13.30
2022-11-01T23:27:37.114Z,13.20
2022-11-01T23:32:38.794Z,13.10
2022-11-01T23:37:41.878Z,13.20
2022-11-01T23:42:43.791Z,13.30
2022-11-01T23:47:45.582Z,13.20
2022-11-01T23:52:52.912Z,13.40
2022-11-01T23:57:56.906Z,13.40
